createdAt,value
2023-05-11T00:00:05.490Z,9.00
2023-05-11T00:01:09.282Z,7.50
2023-05-11T00:02:13.315Z,7.50
2023-05-11T00:03:17.334Z,9.25
2023-05-11T00:04:21.349Z,8.50
2023-05-11T00:05:26.352Z,8.50
2023-05-11T00:06:30.528Z,8.00
2023-05-11T00:07:34.934Z,6.25
2023-05-11T00:08:39.153Z,7.50
2023-05-11T00:09:43.153Z,7.75
2023-05-11T00:10:47.044Z,6.25
2023-05-11T00:11:51.043Z,6.25
2023-05-11T00:12:55.144Z,7.00
2023-05-11T00:13:59.556Z,7.50
2023-05-11T00:15:03.768Z,7.50
2023-05-11T00:16:07.842Z,8.50
2023-05-11T00:17:11.970Z,9.00
2023-05-11T00:18:16.077Z,7.25
2023-05-11T00:19:20.589Z,9.00
2023-05-11T00:20:24.592Z,7.50
2023-05-11T00:21:28.660Z,7.00
2023-05-11T00:22:32.691Z,7.00
2023-05-11T00:23:36.623Z,7.50
2023-05-11T00:24:40.690Z,6.50
2023-05-11T00:25:44.907Z,6.50
2023-05-11T00:26:48.907Z,7.00
2023-05-11T00:27:52.976Z,6.50
2023-05-11T00:28:57.108Z,6.00
2023-05-11T00:30:01.109Z,6.50
2023-05-11T00:31:05.149Z,5.75
2023-05-11T00:32:09.314Z,5.75
2023-05-11T00:33:13.105Z,7.50
2023-05-11T00:34:16.909Z,6.00
2023-05-11T00:35:20.705Z,5.00
2023-05-11T00:36:24.605Z,7.50
2023-05-11T00:37:28.392Z,6.75
2023-05-11T00:38:32.331Z,7.00
2023-05-11T00:39:35.955Z,7.00
2023-05-11T00:40:39.791Z,7.50
2023-05-11T00:41:43.583Z,7.00
2023-05-11T00:42:47.378Z,7.50
2023-05-11T00:43:51.180Z,4.50
2023-05-11T00:44:54.983Z,3.50
2023-05-11T00:45:58.879Z,3.50
2023-05-11T00:47:02.984Z,3.00
2023-05-11T00:48:06.788Z,4.50
2023-05-11T00:49:10.664Z,4.00
2023-05-11T00:50:14.476Z,4.75
2023-05-11T00:51:18.457Z,5.50
2023-05-11T00:52:22.357Z,6.00
2023-05-11T00:53:26.367Z,5.00
2023-05-11T00:54:30.257Z,5.00
2023-05-11T00:55:34.155Z,4.25
2023-05-11T00:56:38.460Z,3.25
2023-05-11T00:57:42.462Z,4.75
2023-05-11T00:58:46.691Z,5.00
2023-05-11T00:59:50.873Z,4.50
2023-05-11T01:00:55.127Z,3.75
2023-05-11T01:01:59.308Z,3.50
2023-05-11T01:03:03.224Z,5.50
2023-05-11T01:04:07.289Z,4.50
2023-05-11T01:05:11.498Z,4.00
2023-05-11T01:06:15.497Z,6.00
2023-05-11T01:07:19.313Z,6.00
2023-05-11T01:08:23.399Z,5.25
2023-05-11T01:09:27.332Z,5.00
2023-05-11T01:10:31.401Z,3.50
2023-05-11T01:11:35.639Z,5.50
2023-05-11T01:12:39.928Z,5.75
2023-05-11T01:13:44.046Z,6.25
2023-05-11T01:14:48.126Z,4.50
2023-05-11T01:15:52.298Z,4.25
2023-05-11T01:16:56.437Z,4.25
2023-05-11T01:18:00.585Z,3.50
2023-05-11T01:19:04.912Z,4.50
2023-05-11T01:20:09.062Z,5.75
2023-05-11T01:21:13.161Z,4.75
2023-05-11T01:22:16.960Z,4.00
2023-05-11T01:23:21.264Z,3.50
2023-05-11T01:24:25.288Z,4.50
2023-05-11T01:25:29.158Z,4.50
2023-05-11T01:26:33.164Z,4.50
2023-05-11T01:27:37.378Z,4.75
2023-05-11T01:28:41.483Z,4.25
2023-05-11T01:29:45.500Z,4.00
2023-05-11T01:30:49.376Z,4.00
2023-05-11T01:31:53.412Z,4.00
2023-05-11T01:32:57.311Z,4.25
2023-05-11T01:34:00.963Z,4.00
2023-05-11T01:35:04.863Z,4.00
2023-05-11T01:36:08.530Z,3.75
2023-05-11T01:37:12.352Z,3.00
2023-05-11T01:38:16.153Z,2.75
2023-05-11T01:39:19.917Z,2.00
2023-05-11T01:40:23.843Z,4.00
2023-05-11T01:41:27.497Z,4.00
2023-05-11T01:42:31.438Z,4.00
2023-05-11T01:43:35.235Z,3.75
2023-05-11T01:44:39.040Z,4.00
2023-05-11T01:45:42.877Z,3.00
2023-05-11T01:46:46.830Z,4.00
2023-05-11T01:47:50.696Z,4.50
2023-05-11T01:48:54.517Z,4.50
2023-05-11T01:49:58.212Z,5.00
2023-05-11T01:51:01.918Z,4.00
2023-05-11T01:52:05.519Z,3.00
2023-05-11T01:53:09.396Z,4.50
2023-05-11T01:54:13.157Z,4.75
2023-05-11T01:55:16.920Z,4.00
2023-05-11T01:56:20.686Z,3.00
2023-05-11T01:57:24.584Z,4.00
2023-05-11T01:58:28.244Z,4.00
2023-05-11T01:59:32.073Z,3.50
2023-05-11T02:00:35.961Z,3.50
2023-05-11T02:01:39.795Z,3.00
2023-05-11T02:02:43.617Z,4.50
2023-05-11T02:03:47.438Z,3.50
2023-05-11T02:04:51.352Z,2.50
2023-05-11T02:05:55.150Z,3.50
2023-05-11T02:06:58.980Z,3.25
2023-05-11T02:08:02.651Z,3.50
2023-05-11T02:09:06.849Z,3.25
2023-05-11T02:10:10.741Z,3.00
2023-05-11T02:11:14.856Z,3.25
2023-05-11T02:12:18.990Z,2.00
2023-05-11T02:13:23.057Z,2.00
2023-05-11T02:14:27.173Z,3.50
2023-05-11T02:15:31.293Z,3.25
2023-05-11T02:16:35.572Z,2.50
2023-05-11T02:17:39.676Z,3.75
2023-05-11T02:18:43.795Z,4.25
2023-05-11T02:19:47.889Z,5.00
2023-05-11T02:20:51.987Z,4.50
2023-05-11T02:21:56.098Z,3.00
2023-05-11T02:23:00.203Z,3.00
2023-05-11T02:24:04.296Z,3.50
2023-05-11T02:25:08.297Z,3.00
2023-05-11T02:26:12.514Z,4.00
2023-05-11T02:27:16.604Z,4.50
2023-05-11T02:28:20.812Z,4.00
2023-05-11T02:29:24.985Z,3.00
2023-05-11T02:30:29.021Z,2.00
2023-05-11T02:31:33.132Z,2.50
2023-05-11T02:32:37.290Z,2.00
2023-05-11T02:33:41.457Z,2.50
2023-05-11T02:34:45.330Z,3.00
2023-05-11T02:35:49.330Z,3.00
2023-05-11T02:36:53.333Z,2.50
2023-05-11T02:37:57.233Z,2.00
2023-05-11T02:39:00.970Z,2.25
2023-05-11T02:40:04.768Z,2.75
2023-05-11T02:41:08.428Z,1.50
2023-05-11T02:42:12.112Z,3.00
2023-05-11T02:43:15.912Z,3.50
2023-05-11T02:44:19.621Z,3.00
2023-05-11T02:45:23.337Z,4.00
2023-05-11T02:46:27.403Z,4.00
2023-05-11T02:47:31.579Z,4.00
2023-05-11T02:48:35.399Z,3.25
2023-05-11T02:49:39.200Z,4.25
2023-05-11T02:50:43.176Z,3.75
2023-05-11T02:51:47.504Z,2.50
2023-05-11T02:52:51.400Z,3.25
2023-05-11T02:53:55.506Z,4.50
2023-05-11T02:54:59.706Z,3.50
2023-05-11T02:56:03.632Z,4.00
2023-05-11T02:57:07.815Z,4.00
2023-05-11T02:58:11.996Z,2.00
2023-05-11T02:59:15.995Z,3.50
2023-05-11T03:00:20.363Z,6.00
2023-05-11T03:01:25.903Z,5.25
2023-05-11T03:02:30.289Z,4.00
2023-05-11T03:03:34.369Z,3.25
2023-05-11T03:04:38.392Z,3.00
2023-05-11T03:05:42.461Z,2.50
2023-05-11T03:06:46.516Z,5.50
2023-05-11T03:07:50.901Z,6.50
2023-05-11T03:08:55.003Z,4.25
2023-05-11T03:09:59.073Z,4.00
2023-05-11T03:11:03.119Z,4.75
2023-05-11T03:12:07.195Z,3.00
2023-05-11T03:13:10.907Z,4.25
2023-05-11T03:14:14.709Z,4.00
2023-05-11T03:15:18.477Z,5.00
2023-05-11T03:16:22.269Z,4.25
2023-05-11T03:17:26.129Z,3.50
2023-05-11T03:18:30.002Z,4.00
2023-05-11T03:19:33.790Z,2.50
2023-05-11T03:20:37.633Z,3.50
2023-05-11T03:21:41.480Z,3.50
2023-05-11T03:22:45.382Z,3.25
2023-05-11T03:23:49.183Z,4.50
2023-05-11T03:24:52.882Z,3.25
2023-05-11T03:25:56.688Z,3.50
2023-05-11T03:27:00.467Z,3.50
2023-05-11T03:28:04.258Z,3.00
2023-05-11T03:29:08.063Z,3.50
2023-05-11T03:30:11.880Z,3.25
2023-05-11T03:31:15.692Z,3.00
2023-05-11T03:32:19.606Z,3.50
2023-05-11T03:33:23.471Z,4.00
2023-05-11T03:34:27.249Z,4.00
2023-05-11T03:35:31.003Z,5.50
2023-05-11T03:36:34.737Z,5.00
2023-05-11T03:37:38.644Z,3.50
2023-05-11T03:38:42.636Z,5.00
2023-05-11T03:39:46.335Z,5.25
2023-05-11T03:40:50.035Z,4.00
2023-05-11T03:41:53.714Z,4.00
2023-05-11T03:42:57.611Z,4.25
2023-05-11T03:44:01.517Z,4.00
2023-05-11T03:45:05.324Z,3.25
2023-05-11T03:46:09.125Z,3.75
2023-05-11T03:47:12.918Z,5.00
2023-05-11T03:48:16.708Z,5.25
2023-05-11T03:49:20.494Z,4.50
2023-05-11T03:50:24.395Z,5.50
2023-05-11T03:51:28.111Z,6.50
2023-05-11T03:52:31.792Z,6.00
2023-05-11T03:53:35.682Z,4.50
2023-05-11T03:54:39.688Z,3.75
2023-05-11T03:55:43.688Z,3.00
2023-05-11T03:56:47.579Z,3.50
2023-05-11T03:57:51.274Z,3.50
2023-05-11T03:58:55.287Z,5.50
2023-05-11T03:59:59.173Z,6.00
2023-05-11T04:01:03.188Z,5.00
2023-05-11T04:02:07.195Z,5.00
2023-05-11T04:03:11.170Z,5.00
2023-05-11T04:04:15.088Z,3.75
2023-05-11T04:05:18.981Z,4.00
2023-05-11T04:06:22.747Z,5.00
2023-05-11T04:07:26.458Z,3.50
2023-05-11T04:08:30.476Z,4.25
2023-05-11T04:09:34.468Z,3.75
2023-05-11T04:10:38.194Z,3.25
2023-05-11T04:11:42.228Z,3.25
2023-05-11T04:12:46.084Z,3.00
2023-05-11T04:13:49.856Z,2.75
2023-05-11T04:14:53.654Z,5.00
2023-05-11T04:15:57.468Z,5.00
2023-05-11T04:17:01.249Z,2.50
2023-05-11T04:18:05.070Z,3.00
2023-05-11T04:19:08.745Z,3.50
2023-05-11T04:20:12.526Z,3.00
2023-05-11T04:21:16.427Z,3.00
2023-05-11T04:22:20.446Z,3.25
2023-05-11T04:23:24.229Z,4.00
2023-05-11T04:24:28.216Z,3.00
2023-05-11T04:25:32.028Z,2.00
2023-05-11T04:26:35.933Z,3.75
2023-05-11T04:27:40.133Z,4.25
2023-05-11T04:28:44.050Z,3.25
2023-05-11T04:29:48.030Z,3.00
2023-05-11T04:30:52.254Z,2.50
2023-05-11T04:31:56.376Z,3.00
2023-05-11T04:33:00.376Z,3.50
2023-05-11T04:34:04.451Z,3.00
2023-05-11T04:35:10.471Z,3.00
2023-05-11T04:36:14.497Z,3.00
2023-05-11T04:37:18.357Z,3.00
2023-05-11T04:38:22.922Z,2.00
2023-05-11T04:39:27.104Z,2.25
2023-05-11T04:40:32.368Z,3.00
2023-05-11T04:41:36.449Z,2.50
2023-05-11T04:42:40.446Z,4.50
2023-05-11T04:43:44.766Z,4.25
2023-05-11T04:44:48.570Z,4.00
2023-05-11T04:45:52.326Z,4.00
2023-05-11T04:46:56.072Z,2.00
2023-05-11T04:48:00.104Z,2.50
2023-05-11T04:49:03.807Z,4.00
2023-05-11T04:50:07.527Z,3.50
2023-05-11T04:51:11.307Z,2.00
2023-05-11T04:52:15.136Z,2.50
2023-05-11T04:53:18.931Z,3.50
2023-05-11T04:54:22.919Z,2.50
2023-05-11T04:55:26.757Z,2.50
2023-05-11T04:56:30.616Z,3.00
2023-05-11T04:57:34.497Z,2.00
2023-05-11T04:58:38.434Z,3.00
2023-05-11T04:59:42.329Z,3.50
2023-05-11T05:00:46.131Z,3.00
2023-05-11T05:01:50.208Z,2.50
2023-05-11T05:02:54.190Z,2.50
2023-05-11T05:03:58.032Z,3.25
2023-05-11T05:05:01.818Z,2.50
2023-05-11T05:06:05.502Z,1.75
2023-05-11T05:07:09.424Z,3.50
2023-05-11T05:08:13.298Z,4.00
2023-05-11T05:09:17.094Z,3.00
2023-05-11T05:10:24.265Z,2.75
2023-05-11T05:11:28.283Z,4.50
2023-05-11T05:12:32.408Z,4.50
2023-05-11T05:13:36.387Z,2.50
2023-05-11T05:14:40.482Z,3.50
2023-05-11T05:15:44.700Z,3.00
2023-05-11T05:16:48.777Z,1.50
2023-05-11T05:17:52.915Z,2.50
2023-05-11T05:18:57.043Z,3.25
2023-05-11T05:20:01.315Z,2.50
2023-05-11T05:21:05.422Z,3.50
2023-05-11T05:22:09.485Z,4.50
2023-05-11T05:23:13.416Z,4.25
2023-05-11T05:24:17.628Z,5.50
2023-05-11T05:25:21.654Z,5.50
2023-05-11T05:26:25.836Z,5.50
2023-05-11T05:27:30.792Z,3.00
2023-05-11T05:28:35.363Z,2.75
2023-05-11T05:29:39.471Z,2.75
2023-05-11T05:30:43.722Z,3.50
2023-05-11T05:31:47.991Z,3.00
2023-05-11T05:32:52.046Z,4.00
2023-05-11T05:33:55.984Z,4.00
2023-05-11T05:34:59.903Z,4.00
2023-05-11T05:36:03.994Z,3.00
2023-05-11T05:37:07.992Z,3.00
2023-05-11T05:38:11.785Z,2.00
2023-05-11T05:39:15.800Z,3.50
2023-05-11T05:40:20.002Z,3.00
2023-05-11T05:41:24.106Z,4.50
2023-05-11T05:42:27.894Z,5.00
2023-05-11T05:43:31.999Z,4.50
2023-05-11T05:44:35.904Z,4.25
2023-05-11T05:45:39.697Z,3.75
2023-05-11T05:46:43.681Z,3.50
2023-05-11T05:47:47.516Z,3.50
2023-05-11T05:48:51.818Z,4.25
2023-05-11T05:49:55.793Z,4.50
2023-05-11T05:50:59.564Z,5.00
2023-05-11T05:52:03.401Z,4.75
2023-05-11T05:53:07.091Z,4.00
2023-05-11T05:54:10.884Z,3.50
2023-05-11T05:55:14.597Z,3.25
2023-05-11T05:56:18.372Z,3.25
2023-05-11T05:57:22.023Z,4.75
2023-05-11T05:58:25.860Z,3.50
2023-05-11T05:59:29.586Z,3.25
2023-05-11T06:00:33.352Z,2.75
2023-05-11T06:01:37.144Z,3.00
2023-05-11T06:02:41.116Z,3.00
2023-05-11T06:03:45.160Z,2.00
2023-05-11T06:04:49.290Z,2.50
2023-05-11T06:05:53.271Z,3.75
2023-05-11T06:06:57.158Z,3.00
2023-05-11T06:08:09.730Z,3.00
2023-05-11T06:09:06.176Z,2.50
2023-05-11T06:10:09.841Z,2.00
2023-05-11T06:11:13.680Z,2.50
2023-05-11T06:12:17.463Z,3.75
2023-05-11T06:13:21.168Z,3.50
2023-05-11T06:14:25.057Z,3.00
2023-05-11T06:15:28.823Z,3.50
2023-05-11T06:16:32.794Z,3.00
2023-05-11T06:17:36.611Z,2.50
2023-05-11T06:18:40.383Z,2.00
2023-05-11T06:19:44.136Z,2.50
2023-05-11T06:20:47.945Z,1.75
2023-05-11T06:21:51.825Z,2.00
2023-05-11T06:22:55.527Z,3.00
2023-05-11T06:23:59.436Z,3.50
2023-05-11T06:25:03.318Z,4.25
2023-05-11T06:26:07.128Z,4.00
2023-05-11T06:27:11.020Z,3.00
2023-05-11T06:28:14.829Z,3.50
2023-05-11T06:29:18.741Z,3.50
2023-05-11T06:30:22.508Z,3.00
2023-05-11T06:31:26.301Z,3.50
2023-05-11T06:32:30.038Z,3.25
2023-05-11T06:33:33.803Z,3.50
2023-05-11T06:34:37.601Z,3.00
2023-05-11T06:35:41.390Z,4.00
2023-05-11T06:36:45.168Z,3.50
2023-05-11T06:37:49.085Z,3.25
2023-05-11T06:38:52.889Z,3.50
2023-05-11T06:39:56.583Z,2.75
2023-05-11T06:41:00.568Z,3.00
2023-05-11T06:42:05.886Z,3.00
2023-05-11T06:43:09.368Z,3.50
2023-05-11T06:44:13.223Z,4.50
2023-05-11T06:45:17.121Z,2.75
2023-05-11T06:46:21.045Z,2.50
2023-05-11T06:47:24.915Z,3.00
2023-05-11T06:48:28.695Z,2.00
2023-05-11T06:49:32.394Z,2.00
2023-05-11T06:50:37.727Z,3.25
2023-05-11T06:51:41.517Z,2.50
2023-05-11T06:52:45.070Z,3.50
2023-05-11T06:53:48.857Z,4.25
2023-05-11T06:54:52.706Z,3.00
2023-05-11T06:55:56.499Z,3.00
2023-05-11T06:57:00.802Z,2.75
2023-05-11T06:58:04.818Z,3.00
2023-05-11T06:59:08.708Z,3.50
2023-05-11T07:00:12.699Z,3.50
2023-05-11T07:01:16.730Z,4.50
2023-05-11T07:02:20.896Z,4.75
2023-05-11T07:03:24.861Z,4.00
2023-05-11T07:04:28.828Z,4.50
2023-05-11T07:05:32.815Z,5.00
2023-05-11T07:06:36.610Z,4.00
2023-05-11T07:07:40.825Z,4.00
2023-05-11T07:08:44.814Z,3.75
2023-05-11T07:09:48.689Z,5.00
2023-05-11T07:10:52.681Z,5.00
2023-05-11T07:11:56.713Z,4.00
2023-05-11T07:13:00.700Z,3.50
2023-05-11T07:14:04.620Z,3.00
2023-05-11T07:15:08.824Z,3.50
2023-05-11T07:16:13.028Z,5.00
2023-05-11T07:17:17.109Z,3.50
2023-05-11T07:18:21.289Z,4.75
2023-05-11T07:19:25.349Z,5.50
2023-05-11T07:20:29.337Z,5.50
2023-05-11T07:21:33.434Z,6.50
2023-05-11T07:22:37.554Z,4.50
2023-05-11T07:23:41.440Z,4.25
2023-05-11T07:24:45.542Z,5.00
2023-05-11T07:25:49.680Z,5.00
2023-05-11T07:26:53.629Z,6.00
2023-05-11T07:27:57.567Z,5.00
2023-05-11T07:29:01.594Z,4.00
2023-05-11T07:30:06.676Z,4.75
2023-05-11T07:31:11.006Z,5.25
2023-05-11T07:32:15.089Z,5.00
2023-05-11T07:33:19.085Z,3.50
2023-05-11T07:34:23.168Z,3.50
2023-05-11T07:35:27.405Z,4.25
2023-05-11T07:36:31.199Z,4.50
2023-05-11T07:37:35.089Z,3.25
2023-05-11T07:38:38.984Z,4.50
2023-05-11T07:39:42.783Z,4.50
2023-05-11T07:40:46.689Z,4.00
2023-05-11T07:41:50.578Z,4.50
2023-05-11T07:42:54.596Z,6.50
2023-05-11T07:43:58.476Z,5.00
2023-05-11T07:45:02.387Z,4.00
2023-05-11T07:46:06.406Z,5.00
2023-05-11T07:47:10.191Z,6.50
2023-05-11T07:48:13.931Z,5.00
2023-05-11T07:49:22.974Z,4.25
2023-05-11T07:50:24.456Z,5.50
2023-05-11T07:51:27.611Z,6.00
2023-05-11T07:52:31.385Z,5.25
2023-05-11T07:53:35.204Z,5.00
2023-05-11T07:54:39.018Z,7.25
2023-05-11T07:55:42.801Z,5.50
2023-05-11T07:56:46.600Z,5.00
2023-05-11T07:57:50.497Z,6.00
2023-05-11T07:58:56.013Z,7.25
2023-05-11T07:59:59.330Z,6.75
2023-05-11T08:01:03.089Z,6.00
2023-05-11T08:02:07.179Z,4.50
2023-05-11T08:03:11.047Z,4.75
2023-05-11T08:04:14.825Z,4.75
2023-05-11T08:05:19.044Z,4.50
2023-05-11T08:06:23.996Z,4.25
2023-05-11T08:07:28.462Z,5.50
2023-05-11T08:08:32.658Z,4.00
2023-05-11T08:09:36.776Z,4.25
2023-05-11T08:10:40.877Z,4.75
2023-05-11T08:11:44.878Z,6.75
2023-05-11T08:12:49.106Z,6.00
2023-05-11T08:13:53.176Z,4.50
2023-05-11T08:14:57.275Z,4.50
2023-05-11T08:16:01.456Z,5.25
2023-05-11T08:17:05.704Z,6.50
2023-05-11T08:18:09.861Z,5.50
2023-05-11T08:19:14.010Z,5.00
2023-05-11T08:20:18.020Z,6.50
2023-05-11T08:21:22.108Z,7.50
2023-05-11T08:22:26.179Z,5.50
2023-05-11T08:23:30.208Z,4.50
2023-05-11T08:24:34.325Z,4.75
2023-05-11T08:25:38.765Z,5.00
2023-05-11T08:26:45.664Z,5.75
2023-05-11T08:27:49.496Z,5.00
2023-05-11T08:28:53.399Z,4.00
2023-05-11T08:29:57.057Z,4.50
2023-05-11T08:31:00.894Z,5.00
2023-05-11T08:32:04.774Z,4.00
2023-05-11T08:33:29.156Z,4.25
2023-05-11T08:34:19.096Z,4.50
2023-05-11T08:35:18.754Z,5.25
2023-05-11T08:36:22.825Z,6.00
2023-05-11T08:37:26.670Z,5.00
2023-05-11T08:38:30.627Z,6.00
2023-05-11T08:40:39.350Z,5.50
2023-05-11T08:41:43.166Z,6.50
2023-05-11T08:42:46.975Z,6.00
2023-05-11T08:43:50.739Z,6.25
2023-05-11T08:44:54.437Z,8.00
2023-05-11T08:45:58.313Z,8.00
2023-05-11T08:47:20.999Z,6.50
2023-05-11T08:48:06.981Z,3.50
2023-05-11T08:49:10.855Z,4.50
2023-05-11T08:50:14.755Z,5.50
2023-05-11T08:51:18.637Z,4.00
2023-05-11T08:52:22.442Z,5.00
2023-05-11T08:53:26.227Z,5.00
2023-05-11T08:54:30.067Z,4.50
2023-05-11T08:55:33.833Z,5.00
2023-05-11T08:56:38.136Z,5.00
2023-05-11T08:57:42.238Z,5.00
2023-05-11T08:58:46.452Z,4.25
2023-05-11T08:59:50.577Z,4.50
2023-05-11T09:00:55.116Z,4.00
2023-05-11T09:01:59.164Z,4.00
2023-05-11T09:03:03.346Z,6.00
2023-05-11T09:04:07.478Z,5.75
2023-05-11T09:05:11.647Z,5.75
2023-05-11T09:06:15.577Z,5.00
2023-05-11T09:07:19.582Z,5.00
2023-05-11T09:08:23.581Z,5.25
2023-05-11T09:09:27.399Z,4.75
2023-05-11T09:10:31.065Z,5.00
2023-05-11T09:11:34.868Z,4.50
2023-05-11T09:12:38.866Z,5.50
2023-05-11T09:13:43.060Z,5.50
2023-05-11T09:14:47.168Z,4.25
2023-05-11T09:15:51.182Z,3.50
2023-05-11T09:16:55.444Z,4.25
2023-05-11T09:17:59.525Z,4.50
2023-05-11T09:19:03.885Z,4.00
2023-05-11T09:20:08.413Z,4.50
2023-05-11T09:21:12.489Z,4.50
2023-05-11T09:22:16.605Z,6.00
2023-05-11T09:23:20.598Z,5.50
2023-05-11T09:24:24.710Z,5.00
2023-05-11T09:25:29.121Z,3.75
2023-05-11T09:26:33.204Z,4.75
2023-05-11T09:27:38.586Z,5.00
2023-05-11T09:29:51.988Z,5.00
2023-05-11T09:30:52.916Z,3.75
2023-05-11T09:31:57.010Z,4.00
2023-05-11T09:33:01.325Z,4.50
2023-05-11T09:34:05.823Z,5.25
2023-05-11T09:35:10.044Z,6.75
2023-05-11T09:36:17.432Z,7.25
2023-05-11T09:37:21.961Z,5.00
2023-05-11T09:38:26.332Z,4.25
2023-05-11T09:39:38.306Z,6.00
2023-05-11T09:40:35.931Z,6.00
2023-05-11T09:41:40.295Z,6.00
2023-05-11T09:42:44.402Z,4.25
2023-05-11T09:43:48.505Z,4.50
2023-05-11T09:44:52.809Z,5.50
2023-05-11T09:45:57.390Z,5.00
2023-05-11T09:47:01.942Z,4.50
2023-05-11T09:48:06.463Z,5.50
2023-05-11T09:49:10.666Z,8.00
2023-05-11T09:50:15.080Z,7.25
2023-05-11T09:51:19.174Z,6.00
2023-05-11T09:52:23.584Z,6.00
2023-05-11T09:53:27.770Z,4.50
2023-05-11T09:54:32.003Z,4.25
2023-05-11T09:55:36.101Z,6.50
2023-05-11T09:56:40.511Z,6.00
2023-05-11T09:57:44.819Z,4.50
2023-05-11T09:58:49.130Z,4.50
2023-05-11T09:59:53.540Z,7.00
2023-05-11T10:00:57.738Z,7.00
2023-05-11T10:02:02.284Z,5.00
2023-05-11T10:03:06.759Z,4.25
2023-05-11T10:04:23.078Z,3.50
2023-05-11T10:05:17.007Z,4.75
2023-05-11T10:06:21.751Z,4.75
2023-05-11T10:07:26.165Z,5.50
2023-05-11T10:08:30.774Z,5.50
2023-05-11T10:09:35.085Z,4.00
2023-05-11T10:10:39.808Z,5.00
2023-05-11T10:11:44.230Z,6.00
2023-05-11T10:12:48.612Z,5.00
2023-05-11T10:13:52.936Z,4.50
2023-05-11T10:14:57.443Z,4.00
2023-05-11T10:16:01.881Z,5.50
2023-05-11T10:17:06.390Z,5.50
2023-05-11T10:18:10.496Z,4.50
2023-05-11T10:19:15.069Z,3.50
2023-05-11T10:20:19.588Z,4.50
2023-05-11T10:21:24.115Z,5.00
2023-05-11T10:22:28.683Z,4.00
2023-05-11T10:23:32.939Z,5.00
2023-05-11T10:24:37.356Z,4.25
2023-05-11T10:25:41.630Z,3.50
2023-05-11T10:26:45.781Z,3.25
2023-05-11T10:27:50.055Z,5.00
2023-05-11T10:28:54.376Z,4.75
2023-05-11T10:29:58.683Z,4.00
2023-05-11T10:31:02.982Z,5.50
2023-05-11T10:32:07.177Z,5.50
2023-05-11T10:33:11.553Z,3.50
2023-05-11T10:34:15.756Z,4.00
2023-05-11T10:35:19.924Z,4.00
2023-05-11T10:36:23.915Z,4.25
2023-05-11T10:37:28.557Z,4.00
2023-05-11T10:38:32.860Z,4.00
2023-05-11T10:39:37.244Z,4.25
2023-05-11T10:40:41.113Z,3.50
2023-05-11T10:41:45.344Z,6.00
2023-05-11T10:42:49.253Z,5.50
2023-05-11T10:43:53.550Z,4.75
2023-05-11T10:44:57.555Z,5.25
2023-05-11T10:46:02.238Z,4.00
2023-05-11T10:47:06.388Z,5.00
2023-05-11T10:48:10.620Z,5.00
2023-05-11T10:49:15.010Z,3.50
2023-05-11T10:50:19.494Z,3.00
2023-05-11T10:51:24.019Z,2.50
2023-05-11T10:52:29.340Z,4.00
2023-05-11T10:53:33.524Z,4.25
2023-05-11T10:54:37.555Z,4.50
2023-05-11T10:55:41.674Z,4.50
2023-05-11T10:56:45.868Z,4.00
2023-05-11T10:57:49.751Z,6.00
2023-05-11T10:58:54.185Z,6.50
2023-05-11T10:59:58.493Z,3.00
2023-05-11T11:01:02.809Z,3.50
2023-05-11T11:02:07.097Z,4.00
2023-05-11T11:03:11.102Z,4.50
2023-05-11T11:04:15.287Z,4.50
2023-05-11T11:05:19.890Z,4.25
2023-05-11T11:06:24.242Z,4.50
2023-05-11T11:07:28.548Z,5.25
2023-05-11T11:08:32.646Z,3.50
2023-05-11T11:09:36.677Z,4.50
2023-05-11T11:10:40.822Z,3.75
2023-05-11T11:11:44.849Z,5.00
2023-05-11T11:12:48.868Z,6.00
2023-05-11T11:13:52.856Z,5.00
2023-05-11T11:14:56.979Z,5.00
2023-05-11T11:16:00.877Z,6.00
2023-05-11T11:17:05.103Z,5.50
2023-05-11T11:18:09.186Z,5.75
2023-05-11T11:19:13.395Z,5.00
2023-05-11T11:20:17.375Z,6.00
2023-05-11T11:21:21.344Z,6.25
2023-05-11T11:22:25.296Z,6.00
2023-05-11T11:23:29.516Z,5.50
2023-05-11T11:24:33.586Z,5.50
2023-05-11T11:25:37.490Z,5.50
2023-05-11T11:26:41.587Z,6.50
2023-05-11T11:27:45.863Z,5.75
2023-05-11T11:28:50.303Z,5.50
2023-05-11T11:29:54.348Z,4.75
2023-05-11T11:30:58.513Z,5.00
2023-05-11T11:32:02.527Z,5.50
2023-05-11T11:33:06.861Z,5.00
2023-05-11T11:34:10.830Z,4.75
2023-05-11T11:35:14.862Z,5.75
2023-05-11T11:36:19.034Z,5.00
2023-05-11T11:37:23.335Z,5.25
2023-05-11T11:38:29.184Z,5.00
2023-05-11T11:39:32.671Z,4.50
2023-05-11T11:40:43.207Z,4.75
2023-05-11T11:41:43.913Z,6.00
2023-05-11T11:42:47.955Z,6.75
2023-05-11T11:43:51.855Z,6.00
2023-05-11T11:44:55.957Z,4.25
2023-05-11T11:46:00.007Z,5.00
2023-05-11T11:47:03.989Z,4.75
2023-05-11T11:48:08.180Z,5.25
2023-05-11T11:49:12.270Z,5.50
2023-05-11T11:50:16.687Z,5.50
2023-05-11T11:51:20.879Z,5.00
2023-05-11T11:52:25.085Z,5.50
2023-05-11T11:53:28.990Z,6.00
2023-05-11T11:54:33.087Z,5.00
2023-05-11T11:55:37.195Z,3.75
2023-05-11T11:56:41.702Z,4.00
2023-05-11T11:57:45.806Z,4.00
2023-05-11T11:58:49.835Z,4.50
2023-05-11T11:59:54.020Z,4.50
2023-05-11T12:00:59.755Z,5.25
2023-05-11T12:02:03.352Z,5.25
2023-05-11T12:03:07.516Z,5.50
2023-05-11T12:04:12.954Z,4.50
2023-05-11T12:05:17.254Z,5.75
2023-05-11T12:06:21.720Z,5.75
2023-05-11T12:07:26.933Z,4.50
2023-05-11T12:08:31.345Z,4.00
2023-05-11T12:09:37.373Z,5.00
2023-05-11T12:10:41.700Z,5.50
2023-05-11T12:11:46.119Z,5.00
2023-05-11T12:12:50.418Z,4.75
2023-05-11T12:13:54.936Z,5.00
2023-05-11T12:14:59.243Z,7.00
2023-05-11T12:16:03.661Z,4.25
2023-05-11T12:17:07.858Z,3.50
2023-05-11T12:18:12.161Z,4.25
2023-05-11T12:19:16.524Z,5.00
2023-05-11T12:20:20.784Z,5.75
2023-05-11T12:21:25.304Z,5.00
2023-05-11T12:22:29.710Z,3.50
2023-05-11T12:23:34.017Z,3.25
2023-05-11T12:24:38.422Z,2.50
2023-05-11T12:25:42.832Z,2.00
2023-05-11T12:26:47.183Z,3.50
2023-05-11T12:27:51.562Z,5.00
2023-05-11T12:28:55.869Z,5.00
2023-05-11T12:30:00.072Z,3.50
2023-05-11T12:31:04.450Z,3.75
2023-05-11T12:32:08.627Z,3.00
2023-05-11T12:33:12.834Z,3.00
2023-05-11T12:34:16.905Z,2.50
2023-05-11T12:35:20.995Z,2.75
2023-05-11T12:36:25.074Z,4.50
2023-05-11T12:37:29.316Z,4.00
2023-05-11T12:38:33.309Z,2.50
2023-05-11T12:39:37.310Z,4.00
2023-05-11T12:40:41.309Z,4.50
2023-05-11T12:41:45.529Z,3.25
2023-05-11T12:42:49.761Z,3.50
2023-05-11T12:43:53.931Z,3.00
2023-05-11T12:44:58.242Z,2.25
2023-05-11T12:46:02.466Z,3.50
2023-05-11T12:47:06.755Z,3.00
2023-05-11T12:48:11.023Z,2.75
2023-05-11T12:49:15.145Z,3.00
2023-05-11T12:50:19.777Z,3.50
2023-05-11T12:51:24.222Z,3.25
2023-05-11T12:52:28.708Z,2.00
2023-05-11T12:53:32.806Z,2.00
2023-05-11T12:54:37.225Z,2.50
2023-05-11T12:55:41.239Z,4.00
2023-05-11T12:56:45.421Z,3.50
2023-05-11T12:57:49.758Z,2.75
2023-05-11T12:58:53.938Z,3.00
2023-05-11T12:59:58.248Z,2.50
2023-05-11T13:01:02.497Z,3.00
2023-05-11T13:02:06.776Z,2.50
2023-05-11T13:03:11.034Z,3.00
2023-05-11T13:04:15.244Z,3.00
2023-05-11T13:05:19.763Z,3.00
2023-05-11T13:06:24.397Z,2.75
2023-05-11T13:07:28.633Z,3.25
2023-05-11T13:08:32.828Z,2.50
2023-05-11T13:09:36.810Z,3.00
2023-05-11T13:10:40.916Z,2.50
2023-05-11T13:11:44.919Z,3.50
2023-05-11T13:12:49.022Z,4.75
2023-05-11T13:13:53.055Z,3.00
2023-05-11T13:14:57.440Z,2.00
2023-05-11T13:16:01.460Z,1.25
2023-05-11T13:17:05.644Z,3.25
2023-05-11T13:18:09.984Z,3.50
2023-05-11T13:19:14.058Z,2.00
2023-05-11T13:20:18.162Z,2.00
2023-05-11T13:21:22.257Z,3.50
2023-05-11T13:22:26.356Z,3.00
2023-05-11T13:23:30.361Z,3.50
2023-05-11T13:24:34.703Z,2.50
2023-05-11T13:25:38.980Z,5.00
2023-05-11T13:26:43.185Z,6.00
2023-05-11T13:27:47.292Z,5.00
2023-05-11T13:29:05.755Z,4.75
2023-05-11T13:29:56.416Z,5.00
2023-05-11T13:31:00.705Z,4.00
2023-05-11T13:32:04.783Z,4.00
2023-05-11T13:33:08.848Z,3.50
2023-05-11T13:34:12.753Z,4.00
2023-05-11T13:35:16.928Z,4.50
2023-05-11T13:36:21.241Z,4.50
2023-05-11T13:37:25.553Z,5.00
2023-05-11T13:38:29.654Z,4.50
2023-05-11T13:39:33.655Z,5.00
2023-05-11T13:40:37.759Z,5.50
2023-05-11T13:41:41.879Z,7.00
2023-05-11T13:42:45.971Z,6.00
2023-05-11T13:43:50.105Z,5.50
2023-05-11T13:44:54.153Z,5.00
2023-05-11T13:45:58.379Z,7.00
2023-05-11T13:47:02.631Z,6.75
2023-05-11T13:48:07.017Z,6.75
2023-05-11T13:49:11.500Z,9.25
2023-05-11T13:50:15.716Z,11.50
2023-05-11T13:51:19.942Z,14.50
2023-05-11T13:52:23.877Z,15.25
2023-05-11T13:53:27.825Z,16.25
2023-05-11T13:54:31.919Z,16.25
2023-05-11T13:55:36.234Z,17.00
2023-05-11T13:56:40.155Z,15.00
2023-05-11T13:57:44.185Z,10.50
2023-05-11T13:58:48.342Z,10.25
2023-05-11T13:59:52.381Z,9.00
2023-05-11T14:01:07.098Z,7.50
2023-05-11T14:02:01.410Z,5.25
2023-05-11T14:03:05.817Z,6.50
2023-05-11T14:04:09.988Z,8.50
2023-05-11T14:05:14.111Z,8.25
2023-05-11T14:06:18.295Z,7.00
2023-05-11T14:07:25.414Z,8.00
2023-05-11T14:08:27.442Z,7.75
2023-05-11T14:09:32.865Z,5.50
2023-05-11T14:10:36.965Z,6.75
2023-05-11T14:11:40.845Z,7.50
2023-05-11T14:12:45.081Z,7.50
2023-05-11T14:13:49.268Z,6.50
2023-05-11T14:14:53.485Z,6.00